createdAt,value
2022-09-14T05:24:31.701Z,15.30
2022-09-14T05:27:05.048Z,15.30
2022-09-14T05:29:32.112Z,15.30
2022-09-14T05:31:59.296Z,15.40
2022-09-14T05:34:26.093Z,15.50
2022-09-14T05:36:52.858Z,15.60
2022-09-14T05:39:23.174Z,15.60
2022-09-14T05:41:50.369Z,15.70
2022-09-14T05:44:17.981Z,15.70
2022-09-14T05:46:44.815Z,15.70
2022-09-14T05:49:11.950Z,15.70
2022-09-14T05:51:38.756Z,15.80
2022-09-14T05:54:11.414Z,15.80
2022-09-14T05:56:38.617Z,15.90
2022-09-14T05:59:05.403Z,15.90
2022-09-14T06:01:33.059Z,15.90
2022-09-14T06:04:04.679Z,15.90
2022-09-14T06:06:32.825Z,15.90
2022-09-14T06:09:00.171Z,15.90
2022-09-14T06:11:29.765Z,15.90
2022-09-14T06:13:57.351Z,15.90
2022-09-14T06:16:25.903Z,16.00
2022-09-14T06:18:55.090Z,15.90
2022-09-14T06:21:22.323Z,15.80
2022-09-14T06:23:50.112Z,15.70
2022-09-14T06:26:17.068Z,15.60
2022-09-14T06:28:44.480Z,15.60
2022-09-14T06:31:15.853Z,15.60
2022-09-14T06:33:47.075Z,15.60
2022-09-14T06:36:16.558Z,15.70
2022-09-14T06:38:44.428Z,15.60
2022-09-14T06:41:13.717Z,15.60
2022-09-14T06:43:42.282Z,15.60
2022-09-14T06:46:21.129Z,15.50
2022-09-14T06:48:51.274Z,15.50
2022-09-14T06:51:29.837Z,15.60
2022-09-14T06:54:00.196Z,15.40
2022-09-14T06:56:28.279Z,15.50
2022-09-14T06:58:55.465Z,15.50
2022-09-14T07:01:22.274Z,15.50
2022-09-14T07:03:51.512Z,15.40
2022-09-14T07:06:22.009Z,15.40
2022-09-14T07:08:50.451Z,15.50
2022-09-14T07:11:19.326Z,15.40
2022-09-14T07:13:46.986Z,15.40
2022-09-14T07:16:14.743Z,15.40
2022-09-14T07:18:42.102Z,15.40
2022-09-14T07:21:19.418Z,15.50
2022-09-14T07:23:48.092Z,15.60
2022-09-14T07:26:23.293Z,15.70
2022-09-14T07:29:03.695Z,15.80
2022-09-14T07:31:33.639Z,15.80
2022-09-14T07:34:04.329Z,15.80
2022-09-14T07:36:35.131Z,15.90
2022-09-14T07:39:06.310Z,15.90
2022-09-14T07:41:34.340Z,16.00
2022-09-14T07:44:03.730Z,16.20
2022-09-14T07:46:33.371Z,16.20
2022-09-14T07:49:02.105Z,16.30
2022-09-14T07:51:30.443Z,16.20
2022-09-14T07:53:58.078Z,16.30
2022-09-14T07:56:27.627Z,16.50
2022-09-14T07:59:11.587Z,16.30
2022-09-14T08:01:43.980Z,16.30
2022-09-14T08:04:11.131Z,16.40
2022-09-14T08:06:40.523Z,16.30
2022-09-14T08:09:09.144Z,16.50
2022-09-14T08:11:36.468Z,16.50
2022-09-14T08:14:06.811Z,16.60
2022-09-14T08:16:34.925Z,16.70
2022-09-14T08:19:04.532Z,16.50
2022-09-14T08:21:32.699Z,16.50
2022-09-14T08:24:02.440Z,16.60
2022-09-14T08:26:31.356Z,16.80
2022-09-14T08:29:02.072Z,16.90
2022-09-14T08:31:29.826Z,16.70
2022-09-14T08:34:02.636Z,16.50
2022-09-14T08:36:33.205Z,16.40
2022-09-14T08:39:00.996Z,16.50
2022-09-14T08:41:32.804Z,16.80
2022-09-14T10:34:03.462Z,17.90
2022-09-14T10:36:50.349Z,18.30
2022-09-14T10:39:50.519Z,18.30
2022-09-14T10:42:37.052Z,18.40
2022-09-14T10:45:24.815Z,18.40
2022-09-14T10:48:24.073Z,18.60
2022-09-14T10:51:24.810Z,18.80
2022-09-14T10:54:15.782Z,18.80
2022-09-14T10:56:51.247Z,18.60
2022-09-14T10:59:48.187Z,18.40
2022-09-14T11:03:03.379Z,18.60
2022-09-14T11:05:46.359Z,19.00
2022-09-14T11:08:44.401Z,18.80
2022-09-14T11:11:26.465Z,19.00
2022-09-14T11:14:08.286Z,18.90
2022-09-14T11:16:55.667Z,19.00
2022-09-14T11:19:55.956Z,19.10
2022-09-14T11:22:41.195Z,19.10
2022-09-14T11:25:20.995Z,19.30
2022-09-14T11:27:58.306Z,19.40
2022-09-14T11:30:39.497Z,19.70
2022-09-14T11:33:19.507Z,19.30
2022-09-14T11:35:52.909Z,19.00
2022-09-14T11:38:22.092Z,18.80
2022-09-14T11:41:02.915Z,18.80
2022-09-14T11:43:37.376Z,19.00
2022-09-14T11:46:14.098Z,18.80
2022-09-14T11:48:54.593Z,18.80
2022-09-14T11:51:54.106Z,18.90
2022-09-14T11:54:22.548Z,18.90
2022-09-14T11:56:52.091Z,18.80
2022-09-14T11:59:50.454Z,18.80
2022-09-14T12:02:23.874Z,18.80
2022-09-14T12:05:06.474Z,18.90
2022-09-14T12:07:42.395Z,19.10
2022-09-14T12:10:18.023Z,18.90
2022-09-14T12:12:52.379Z,18.90
2022-09-14T12:15:29.256Z,18.90
2022-09-14T12:18:08.227Z,19.10
2022-09-14T12:20:40.638Z,19.20
2022-09-14T12:23:29.082Z,19.30
2022-09-14T12:26:20.801Z,19.10
2022-09-14T12:28:54.148Z,19.00
2022-09-14T12:31:46.649Z,18.80
2022-09-14T12:34:27.924Z,18.70
2022-09-14T12:36:57.688Z,18.90
2022-09-14T12:39:27.333Z,19.20
2022-09-14T12:41:54.059Z,19.20
2022-09-14T12:44:41.085Z,19.30
2022-09-14T12:47:30.443Z,19.20
2022-09-14T12:50:17.574Z,19.20
2022-09-14T12:53:15.790Z,19.40
2022-09-14T12:55:51.754Z,19.30
2022-09-14T12:58:39.244Z,19.20
2022-09-14T13:01:59.726Z,19.00
2022-09-14T13:04:40.562Z,19.10
2022-09-14T13:07:21.116Z,19.40
2022-09-14T13:09:53.439Z,19.30
2022-09-14T13:12:46.501Z,19.40
2022-09-14T13:15:26.273Z,19.50
2022-09-14T13:18:19.555Z,19.40
2022-09-14T13:20:53.626Z,19.30
2022-09-14T13:23:31.500Z,19.40
2022-09-14T13:25:58.799Z,19.50
2022-09-14T13:28:31.248Z,19.50
2022-09-14T13:31:00.873Z,19.60
2022-09-14T13:33:29.800Z,19.50
2022-09-14T13:36:01.471Z,19.60
2022-09-14T13:38:36.178Z,19.60
2022-09-14T13:41:11.490Z,19.50
2022-09-14T13:43:41.976Z,19.30
2022-09-14T13:46:11.846Z,19.10
2022-09-14T13:48:42.864Z,19.20
2022-09-14T13:51:13.670Z,19.20
2022-09-14T13:53:51.817Z,19.20
2022-09-14T13:56:26.600Z,19.20
2022-09-14T13:59:22.941Z,19.10
2022-09-14T14:01:59.148Z,19.20
2022-09-14T14:04:35.482Z,19.20
2022-09-14T14:07:26.358Z,19.30
2022-09-14T14:10:02.510Z,19.40
2022-09-14T14:12:42.252Z,19.50
2022-09-14T14:15:10.844Z,19.30
2022-09-14T14:17:40.402Z,19.20
2022-09-14T14:20:34.874Z,19.10
2022-09-14T14:23:10.924Z,19.10
2022-09-14T14:26:08.516Z,19.10
2022-09-14T14:28:35.497Z,19.20
2022-09-14T14:31:08.782Z,19.30
2022-09-14T16:33:19.303Z,18.80
2022-09-14T16:35:46.145Z,18.70
2022-09-14T16:38:12.993Z,18.70
2022-09-14T16:40:42.776Z,18.60
2022-09-14T16:43:10.419Z,18.50
2022-09-14T16:45:37.580Z,18.40
2022-09-14T16:48:04.586Z,18.40
2022-09-14T16:50:32.285Z,18.40
2022-09-14T16:52:59.118Z,18.40
2022-09-14T16:55:25.994Z,18.40
2022-09-14T16:57:52.797Z,18.30
2022-09-14T17:00:19.641Z,18.30
2022-09-14T17:02:55.051Z,18.30
2022-09-14T17:05:21.932Z,18.20
2022-09-14T17:07:52.041Z,18.20
2022-09-14T17:10:20.011Z,18.20
2022-09-14T17:12:47.355Z,18.20
2022-09-14T17:15:14.589Z,18.30
2022-09-14T17:17:41.688Z,18.40
2022-09-14T17:20:08.903Z,18.40
2022-09-14T17:22:35.839Z,18.40
2022-09-14T17:25:02.739Z,18.30
2022-09-14T17:27:29.711Z,18.20
2022-09-14T17:29:56.472Z,18.20
2022-09-14T17:32:23.463Z,18.30
2022-09-14T17:34:50.407Z,18.20
2022-09-14T17:37:17.441Z,18.30
2022-09-14T17:39:44.225Z,18.30
2022-09-14T17:42:11.431Z,18.30
2022-09-14T17:44:38.408Z,18.30
2022-09-14T17:47:06.516Z,18.30
2022-09-14T17:49:33.355Z,18.30
2022-09-14T17:52:01.430Z,18.30
2022-09-14T17:54:28.267Z,18.20
2022-09-14T17:56:55.837Z,18.20
2022-09-14T17:59:24.395Z,18.20
2022-09-14T18:01:51.849Z,18.10
2022-09-14T18:04:19.287Z,18.10
2022-09-14T18:06:48.333Z,18.10
2022-09-14T18:09:24.690Z,18.00
2022-09-14T18:11:54.221Z,18.10
2022-09-14T18:14:21.215Z,18.00
2022-09-14T18:16:48.273Z,18.10
2022-09-14T18:19:16.363Z,18.10
2022-09-14T18:21:45.155Z,18.10
2022-09-14T18:24:15.447Z,18.10
2022-09-14T18:26:43.602Z,18.10
2022-09-14T18:29:14.687Z,18.10
2022-09-14T18:31:42.109Z,18.10
2022-09-14T18:34:09.052Z,18.10
2022-09-14T18:36:36.906Z,18.10
2022-09-14T18:39:04.411Z,18.10
2022-09-14T18:41:34.315Z,18.10
2022-09-14T18:44:02.448Z,18.10
2022-09-14T18:46:29.624Z,18.10
2022-09-14T18:49:00.129Z,18.10
2022-09-14T18:51:28.712Z,18.10
2022-09-14T18:53:57.867Z,18.10
2022-09-14T18:56:25.367Z,18.10
2022-09-14T18:58:52.695Z,18.10
2022-09-14T19:01:19.954Z,18.10
2022-09-14T19:03:47.633Z,18.00
2022-09-14T19:06:17.250Z,17.90
2022-09-14T19:08:45.439Z,17.90
2022-09-14T19:11:14.916Z,17.90
2022-09-14T19:13:42.235Z,17.90
2022-09-14T19:16:17.999Z,17.90
2022-09-14T19:18:46.994Z,17.90
2022-09-14T19:21:20.578Z,17.90
2022-09-14T19:23:55.474Z,17.90
2022-09-14T19:26:22.256Z,17.90
2022-09-14T19:28:49.389Z,17.90
2022-09-14T19:31:18.966Z,17.80
2022-09-14T19:33:46.213Z,17.70
2022-09-14T19:36:15.659Z,17.70
2022-09-14T19:38:42.881Z,17.80
2022-09-14T19:41:10.097Z,17.70
2022-09-14T19:43:37.088Z,17.70
2022-09-14T19:46:04.204Z,17.70
2022-09-14T19:48:32.058Z,17.70
2022-09-14T19:51:04.160Z,17.60
2022-09-14T19:53:33.092Z,17.70
2022-09-14T19:56:02.471Z,17.60
2022-09-14T19:58:29.941Z,17.60
2022-09-14T20:00:57.457Z,17.60
2022-09-14T20:03:24.955Z,17.60
2022-09-14T20:06:02.334Z,17.70
2022-09-14T20:08:30.719Z,17.70
2022-09-14T20:11:03.196Z,17.70
2022-09-14T20:13:30.025Z,17.70
2022-09-14T20:15:57.321Z,17.70
2022-09-14T20:18:24.271Z,17.70
2022-09-14T20:20:51.063Z,17.70
2022-09-14T20:23:17.903Z,17.60
2022-09-14T20:25:44.714Z,17.60
2022-09-14T20:28:11.728Z,17.60
2022-09-14T20:30:38.500Z,17.70
2022-09-14T20:33:05.286Z,17.70
2022-09-14T20:35:32.365Z,17.70
2022-09-14T20:37:59.267Z,17.70
2022-09-14T20:40:26.239Z,17.70
2022-09-14T20:42:53.016Z,17.70
2022-09-14T20:45:20.153Z,17.70
2022-09-14T20:47:46.914Z,17.60
2022-09-14T20:50:13.773Z,17.60
2022-09-14T20:52:40.513Z,17.60
2022-09-14T20:55:08.369Z,17.60
2022-09-14T20:57:35.238Z,17.50
2022-09-14T21:00:02.738Z,17.50
2022-09-14T21:02:31.052Z,17.50
2022-09-14T21:04:57.893Z,17.50
2022-09-14T21:07:25.660Z,17.50
2022-09-14T21:09:52.591Z,17.60
2022-09-14T21:12:19.527Z,17.50
